Time;durP1;ratioP1;P1;durP2;ratioP2;P2;SDS_P1;SDS_P2;PMS_P1;PMS_P2;Temp;Humidity;BMP_temperature;BMP_pressure;BME280_temperature;BME280_humidity;BME280_pressure;Samples;Min_cycle;Max_cycle;Signal;HPM_P1;HPM_P2
2023/03/24 00:02:15;;;;;;;;;32.00;31.25;;;;;14.58;30.75;99201.59;5070913;28;8846;-77
2023/03/24 00:04:48;;;;;;;;;33.00;32.25;;;;;14.21;31.66;99198.72;5087274;28;8897;-77
2023/03/24 00:07:18;;;;;;;;;26.00;25.50;;;;;14.19;31.52;99200.56;5056228;28;8978;-76
2023/03/24 00:09:47;;;;;;;;;32.00;29.00;;;;;14.23;31.44;99194.22;5105852;28;8879;-77
2023/03/24 00:12:17;;;;;;;;;31.75;30.50;;;;;14.29;31.48;99195.75;5069102;28;8952;-76
2023/03/24 00:14:46;;;;;;;;;33.75;31.50;;;;;14.31;31.28;99191.25;5067310;28;8840;-77
2023/03/24 00:17:16;;;;;;;;;32.75;31.00;;;;;14.33;31.05;99188.56;5082778;28;8843;-79
2023/03/24 00:19:47;;;;;;;;;29.00;26.75;;;;;14.33;30.74;99191.19;5101126;28;9013;-78
2023/03/24 00:22:16;;;;;;;;;30.00;28.25;;;;;14.26;31.15;99191.47;5067513;28;8858;-76
2023/03/24 00:24:45;;;;;;;;;34.75;32.75;;;;;14.15;31.13;99188.41;5084559;28;8874;-78
2023/03/24 00:27:16;;;;;;;;;33.00;32.75;;;;;14.16;31.25;99189.25;5069010;28;8842;-77
2023/03/24 00:29:45;;;;;;;;;34.50;32.75;;;;;14.14;31.21;99180.53;5068929;28;8931;-78
2023/03/24 00:32:14;;;;;;;;;32.50;31.00;;;;;14.13;31.22;99184.09;5081605;28;8842;-78
2023/03/24 00:34:43;;;;;;;;;30.75;29.50;;;;;14.13;31.26;99186.72;5066753;28;8858;-78
2023/03/24 00:37:13;;;;;;;;;29.25;28.25;;;;;14.12;31.28;99185.88;5068249;28;9000;-76
2023/03/24 00:39:42;;;;;;;;;35.50;33.00;;;;;14.14;31.27;99193.75;5066966;28;8892;-75
2023/03/24 00:42:12;;;;;;;;;33.50;32.00;;;;;14.12;31.28;99185.03;5050798;28;9640;-76
2023/03/24 00:44:43;;;;;;;;;36.25;31.25;;;;;14.07;31.71;99191.38;5083841;28;8854;-76
2023/03/24 00:47:16;;;;;;;;;30.25;30.25;;;;;14.01;31.93;99177.53;5067368;28;8863;-78
2023/03/24 00:49:45;;;;;;;;;33.25;31.75;;;;;13.98;31.85;99178.53;5084115;28;8883;-76
2023/03/24 00:52:19;;;;;;;;;36.75;33.00;;;;;13.99;31.87;99182.03;5088600;28;8872;-76
2023/03/24 00:54:49;;;;;;;;;31.75;29.25;;;;;13.96;31.97;99177.75;5052691;28;8958;-77
2023/03/24 00:57:20;;;;;;;;;33.50;29.50;;;;;13.95;31.96;99173.38;5087382;28;8840;-78
2023/03/24 00:59:50;;;;;;;;;29.75;29.50;;;;;13.92;32.07;99176.13;5088736;28;9636;-77
2023/03/24 01:02:23;;;;;;;;;38.75;35.00;;;;;13.91;32.33;99178.84;5086793;28;8879;-76
2023/03/24 01:04:53;;;;;;;;;35.25;33.00;;;;;13.78;32.51;99174.00;5069099;28;8876;-76
2023/03/24 01:07:24;;;;;;;;;33.00;31.25;;;;;13.75;32.56;99179.44;5087086;28;9684;-77
2023/03/24 01:09:57;;;;;;;;;38.00;33.50;;;;;13.73;32.24;99162.75;5068820;28;8930;-76
2023/03/24 01:12:28;;;;;;;;;34.25;32.50;;;;;13.72;32.39;99168.13;5088459;28;8864;-76
2023/03/24 01:14:59;;;;;;;;;36.50;33.50;;;;;13.70;32.58;99155.84;5069956;28;8899;-77
2023/03/24 01:17:29;;;;;;;;;35.00;33.25;;;;;13.70;32.64;99155.84;5088867;28;8937;-76
2023/03/24 01:19:58;;;;;;;;;23.25;22.75;;;;;13.66;32.40;99146.31;5089106;28;8847;-79
2023/03/24 01:22:30;;;;;;;;;32.25;29.50;;;;;13.66;32.29;99148.09;5086719;28;8851;-76
2023/03/24 01:24:59;;;;;;;;;32.50;31.50;;;;;13.43;32.69;99144.59;5064604;28;8875;-76
2023/03/24 01:27:28;;;;;;;;;32.50;32.00;;;;;13.29;33.05;99144.25;4999902;28;8894;-76
2023/03/24 01:29:59;;;;;;;;;31.60;28.40;;;;;13.30;33.16;99143.34;5048349;28;8895;-76
2023/03/24 01:32:29;;;;;;;;;30.00;29.40;;;;;13.20;32.77;99134.06;5047799;28;8887;-76
2023/03/24 01:34:58;;;;;;;;;29.50;26.75;;;;;13.12;32.78;99140.47;5065301;28;8852;-76
2023/03/24 01:37:27;;;;;;;;;24.60;23.80;;;;;13.14;32.64;99135.16;5031953;28;9032;-74
2023/03/24 01:39:57;;;;;;;;;31.80;28.80;;;;;13.17;32.70;99137.69;5070175;28;9581;-76
2023/03/24 01:42:28;;;;;;;;;27.00;25.75;;;;;13.15;32.71;99133.34;5049183;28;8879;-75
2023/03/24 01:45:01;;;;;;;;;27.00;27.00;;;;;13.20;32.68;99140.19;5064984;28;8863;-77
2023/03/24 01:47:30;;;;;;;;;29.75;29.75;;;;;13.19;32.99;99137.63;5048212;28;8956;-77
2023/03/24 01:50:04;;;;;;;;;39.25;35.00;;;;;13.29;32.85;99133.69;5031466;28;8875;-77
2023/03/24 01:52:36;;;;;;;;;31.00;29.50;;;;;13.36;32.74;99136.97;4999872;28;8894;-78
2023/03/24 01:55:11;;;;;;;;;32.00;32.00;;;;;13.39;33.13;99134.19;5004519;28;9595;-76
2023/03/24 01:57:45;;;;;;;;;34.50;32.50;;;;;13.35;33.00;99136.09;5082558;28;8889;-77
2023/03/24 02:00:17;;;;;;;;;36.75;34.75;;;;;13.34;33.08;99138.81;5064914;28;8876;-75
2023/03/24 02:03:10;;;;;;;;;33.50;30.75;;;;;13.33;33.01;99135.28;5030796;28;8826;-78
2023/03/24 02:05:50;;;;;;;;;29.75;29.50;;;;;13.30;33.12;99130.16;5024838;28;8976;-79
2023/03/24 02:08:26;;;;;;;;;39.00;35.25;;;;;13.29;33.49;99131.06;5025244;28;10041;-78
2023/03/24 02:10:59;;;;;;;;;33.50;31.25;;;;;13.23;33.30;99136.59;5041095;28;10213;-77
2023/03/24 02:13:36;;;;;;;;;40.25;34.00;;;;;13.10;33.57;99133.53;5044912;28;9092;-78
2023/03/24 02:16:18;;;;;;;;;38.75;33.50;;;;;12.76;34.37;99139.19;5032073;28;8869;-78
2023/03/24 02:19:00;;;;;;;;;39.50;33.50;;;;;12.91;34.71;99138.66;5065304;28;8958;-79
2023/03/24 02:21:52;;;;;;;;;34.75;33.00;;;;;12.99;34.36;99136.59;5064926;28;8869;-77
2023/03/24 02:24:55;;;;;;;;;42.50;38.00;;;;;12.97;34.53;99137.56;5064768;28;8898;-78
2023/03/24 02:27:51;;;;;;;;;39.75;35.75;;;;;13.02;33.87;99135.63;5011921;28;8852;-77
2023/03/24 02:30:47;;;;;;;;;29.00;29.00;;;;;12.95;34.08;99136.78;4929539;29;9081;-75
2023/03/24 02:33:35;;;;;;;;;33.25;32.00;;;;;12.88;33.98;99139.66;4880091;29;8898;-76
2023/03/24 02:36:47;;;;;;;;;31.25;30.25;;;;;12.91;33.92;99128.09;4890342;29;9060;-77
2023/03/24 02:39:38;;;;;;;;;29.75;27.50;;;;;12.87;33.77;99127.34;4912544;28;9774;-76
2023/03/24 02:42:16;;;;;;;;;34.25;32.00;;;;;12.83;34.20;99128.34;4953252;28;8870;-78
2023/03/24 02:44:56;;;;;;;;;29.25;26.75;;;;;12.83;34.04;99132.78;4969307;28;8874;-79
2023/03/24 02:47:33;;;;;;;;;34.25;31.00;;;;;12.72;34.32;99134.03;4922938;28;8859;-75
2023/03/24 02:50:12;;;;;;;;;34.25;31.75;;;;;12.68;34.31;99128.91;4956581;28;8894;-76
2023/03/24 02:52:46;;;;;;;;;32.25;32.25;;;;;12.77;34.50;99125.06;4956453;28;8875;-76
2023/03/24 02:55:22;;;;;;;;;35.75;33.50;;;;;12.81;34.10;99127.56;4952992;28;8882;-76
2023/03/24 02:57:56;;;;;;;;;35.00;32.75;;;;;12.77;34.45;99127.72;4968547;28;9659;-76
2023/03/24 03:00:48;;;;;;;;;35.25;31.50;;;;;12.62;34.58;99121.25;4968744;28;8882;-77
2023/03/24 03:03:40;;;;;;;;;32.00;30.75;;;;;12.63;34.72;99123.81;4957957;28;8859;-76
2023/03/24 03:06:15;;;;;;;;;30.00;26.25;;;;;12.56;34.28;99114.41;4961197;28;8859;-78
2023/03/24 03:08:47;;;;;;;;;24.80;24.20;;;;;12.57;34.10;99121.38;5114033;27;8939;-77
2023/03/24 03:11:19;;;;;;;;;28.50;25.50;;;;;12.58;34.12;99124.88;5087207;28;8875;-75
2023/03/24 03:13:52;;;;;;;;;29.50;28.75;;;;;12.59;34.28;99118.72;5072362;28;8844;-79
2023/03/24 03:16:24;;;;;;;;;29.25;28.75;;;;;12.56;33.93;99118.81;5085917;28;8859;-80
2023/03/24 03:18:56;;;;;;;;;28.50;27.50;;;;;12.70;34.00;99119.19;5068127;28;8889;-76
2023/03/24 03:21:31;;;;;;;;;32.25;32.25;;;;;12.74;34.26;99121.63;5084339;28;8961;-77
2023/03/24 03:24:06;;;;;;;;;37.00;36.00;;;;;12.62;34.91;99122.09;5068685;28;8948;-77
2023/03/24 03:26:36;;;;;;;;;38.25;34.75;;;;;12.62;34.94;99116.81;5078166;28;8843;-75
2023/03/24 03:29:11;;;;;;;;;37.00;35.75;;;;;12.64;34.69;99124.69;5068510;28;9655;-78
2023/03/24 03:31:43;;;;;;;;;36.50;35.25;;;;;12.65;34.76;99119.31;5034914;28;8888;-77
2023/03/24 03:34:20;;;;;;;;;37.50;35.25;;;;;12.71;34.60;99121.75;5088296;28;8837;-77
2023/03/24 03:36:57;;;;;;;;;35.75;33.50;;;;;12.73;34.83;99121.69;5067684;28;8886;-77
2023/03/24 03:39:29;;;;;;;;;37.75;34.50;;;;;12.68;35.05;99118.38;5084351;28;8846;-77
2023/03/24 03:42:05;;;;;;;;;40.50;36.50;;;;;12.51;35.00;99129.53;5044843;28;8878;-77
2023/03/24 03:44:34;;;;;;;;;36.50;34.25;;;;;12.47;34.93;99123.50;5086703;28;8840;-76
2023/03/24 03:47:03;;;;;;;;;27.75;25.50;;;;;12.41;34.90;99131.63;5068138;28;8858;-77
2023/03/24 03:49:40;;;;;;;;;34.25;32.25;;;;;12.46;34.98;99124.41;5067437;28;8838;-76
2023/03/24 03:52:09;;;;;;;;;36.50;34.50;;;;;12.42;35.44;99120.16;5083751;28;8865;-78
2023/03/24 03:54:41;;;;;;;;;39.50;36.25;;;;;12.45;35.18;99124.47;5066321;28;8850;-75
2023/03/24 03:57:14;;;;;;;;;42.50;35.75;;;;;12.48;35.88;99127.84;5067060;28;8893;-77
2023/03/24 04:00:10;;;;;;;;;42.00;37.00;;;;;12.40;35.79;99126.41;5049032;28;9625;-76
2023/03/24 04:03:10;;;;;;;;;33.25;30.75;;;;;12.48;35.41;99122.56;5036893;28;8856;-76
2023/03/24 04:05:47;;;;;;;;;47.50;37.25;;;;;12.35;35.62;99118.66;5066741;28;8864;-77
2023/03/24 04:08:25;;;;;;;;;39.00;36.25;;;;;12.36;35.10;99120.38;5065933;28;8894;-76
2023/03/24 04:11:28;;;;;;;;;40.25;36.25;;;;;12.44;35.38;99118.31;5065185;28;8836;-77
2023/03/24 04:15:01;;;;;;;;;42.25;37.50;;;;;12.46;35.59;99116.50;5061758;28;8906;-78
2023/03/24 04:18:24;;;;;;;;;111.00;98.75;;;;;12.43;35.28;99121.91;4970235;28;8852;-77
2023/03/24 04:21:12;;;;;;;;;55.00;47.25;;;;;12.33;35.71;99123.13;4912948;29;11606;-77
2023/03/24 04:23:53;;;;;;;;;34.75;33.25;;;;;12.29;35.69;99122.34;4919232;28;8850;-76
2023/03/24 04:26:29;;;;;;;;;34.50;32.50;;;;;12.24;35.95;99131.34;4917812;28;8863;-76
2023/03/24 04:29:17;;;;;;;;;35.75;34.25;;;;;12.28;35.80;99127.72;4917605;28;8850;-76
2023/03/24 04:31:53;;;;;;;;;36.00;34.75;;;;;12.22;36.11;99128.78;4891632;28;8862;-75
2023/03/24 04:34:29;;;;;;;;;35.50;33.75;;;;;12.22;35.79;99127.91;4937037;28;8882;-75
2023/03/24 04:37:11;;;;;;;;;31.00;29.50;;;;;12.21;35.70;99136.72;4934673;28;8844;-75
2023/03/24 04:40:10;;;;;;;;;38.75;34.50;;;;;12.19;35.81;99133.28;4937896;28;8906;-75
2023/03/24 04:42:45;;;;;;;;;33.50;32.50;;;;;12.17;36.30;99135.97;4934747;28;8871;-76
2023/03/24 04:45:16;;;;;;;;;33.00;32.75;;;;;12.08;36.27;99137.13;4919431;28;8872;-76
2023/03/24 04:48:10;;;;;;;;;39.75;35.00;;;;;12.15;36.27;99140.44;4897398;29;8869;-77
2023/03/24 04:51:00;;;;;;;;;30.50;30.25;;;;;12.09;36.29;99152.03;4886668;29;8882;-77
2023/03/24 04:53:40;;;;;;;;;81.00;61.25;;;;;12.09;36.43;99153.81;4911153;29;10083;-77
2023/03/24 04:56:39;;;;;;;;;47.50;38.50;;;;;12.22;36.48;99151.63;4944001;28;9451;-76
2023/03/24 04:59:22;;;;;;;;;49.00;37.75;;;;;12.11;37.18;99150.22;4989127;28;8892;-74
2023/03/24 05:01:52;;;;;;;;;49.50;42.50;;;;;12.14;37.06;99151.88;4986363;28;8931;-76
2023/03/24 05:04:42;;;;;;;;;53.50;44.75;;;;;12.19;36.86;99146.47;4985900;28;8966;-77
2023/03/24 05:07:17;;;;;;;;;54.75;44.50;;;;;12.20;37.01;99151.69;4970288;28;8869;-76
2023/03/24 05:09:51;;;;;;;;;66.25;52.00;;;;;12.23;36.47;99141.03;4970648;28;8868;-76
2023/03/24 05:12:20;;;;;;;;;38.25;35.50;;;;;12.24;36.48;99148.03;4978253;28;8841;-74
2023/03/24 05:15:10;;;;;;;;;37.00;34.75;;;;;12.26;36.53;99146.19;4986572;28;9588;-75
2023/03/24 05:17:40;;;;;;;;;38.50;34.00;;;;;12.29;36.58;99148.72;4941762;28;9691;-77
2023/03/24 05:20:11;;;;;;;;;38.25;33.75;;;;;12.37;36.48;99150.22;4966382;28;8867;-76
2023/03/24 05:22:44;;;;;;;;;34.50;32.50;;;;;12.41;35.91;99154.47;4950589;28;8933;-77
2023/03/24 05:25:13;;;;;;;;;123.25;116.50;;;;;12.48;36.09;99150.72;4995746;28;8956;-76
2023/03/24 05:27:42;;;;;;;;;43.00;38.50;;;;;12.52;36.08;99152.31;5086158;28;11620;-76
2023/03/24 05:30:24;;;;;;;;;43.50;37.75;;;;;12.58;35.73;99156.53;5103449;28;8848;-79
2023/03/24 05:33:00;;;;;;;;;48.00;39.50;;;;;12.61;35.89;99159.91;5064563;28;8866;-77
2023/03/24 05:35:31;;;;;;;;;46.00;39.75;;;;;12.73;36.32;99158.59;5099920;28;8885;-77
2023/03/24 05:38:00;;;;;;;;;42.00;38.25;;;;;12.81;36.35;99150.44;5066065;28;8858;-76
2023/03/24 05:40:29;;;;;;;;;36.25;35.00;;;;;12.88;35.87;99154.59;5049860;28;8865;-75
2023/03/24 05:43:11;;;;;;;;;40.25;36.25;;;;;13.01;35.64;99155.84;5066004;28;8858;-77
2023/03/24 05:45:44;;;;;;;;;51.00;40.75;;;;;13.07;35.49;99160.91;5083030;28;8902;-75
2023/03/24 05:48:23;;;;;;;;;48.75;42.50;;;;;13.20;35.71;99156.00;5082627;28;8940;-79
2023/03/24 05:51:14;;;;;;;;;65.00;51.75;;;;;13.27;36.07;99160.16;5075192;27;8832;-78
2023/03/24 05:53:43;;;;;;;;;206.00;185.67;;;;;13.29;36.18;99160.09;5090056;28;9007;-75
2023/03/24 05:56:18;;;;;;;;;51.00;42.00;;;;;13.15;36.21;99159.75;5119966;27;8908;-79
2023/03/24 05:59:17;;;;;;;;;81.00;67.00;;;;;13.33;36.20;99161.69;5031474;28;8935;-75
2023/03/24 06:02:04;;;;;;;;;57.75;47.00;;;;;13.34;36.39;99162.56;5033652;28;10153;-77
2023/03/24 06:04:52;;;;;;;;;57.75;48.00;;;;;13.47;36.22;99164.66;5031302;28;8984;-77
2023/03/24 06:07:29;;;;;;;;;56.00;47.00;;;;;13.53;35.78;99160.94;5015530;28;8831;-76
2023/03/24 06:10:01;;;;;;;;;59.00;49.25;;;;;13.66;35.81;99158.66;5014749;28;8831;-77
2023/03/24 06:12:38;;;;;;;;;61.75;50.50;;;;;13.78;35.66;99154.66;5023770;28;8867;-80
2023/03/24 06:15:10;;;;;;;;;65.00;51.75;;;;;13.89;35.37;99155.97;5044125;28;8848;-80
2023/03/24 06:17:41;;;;;;;;;63.00;50.00;;;;;13.96;35.42;99153.97;5023305;28;8878;-80
2023/03/24 06:20:21;;;;;;;;;60.00;49.50;;;;;14.08;35.29;99158.72;4996555;28;8860;-80
2023/03/24 06:23:22;;;;;;;;;58.75;48.25;;;;;14.20;35.25;99153.84;4948787;28;8876;-79
2023/03/24 06:26:13;;;;;;;;;62.50;47.25;;;;;14.34;34.91;99166.47;4933562;28;9705;-77
2023/03/24 06:28:51;;;;;;;;;58.75;47.25;;;;;14.44;34.88;99163.38;4949165;28;8911;-77
2023/03/24 06:31:24;;;;;;;;;65.50;51.75;;;;;14.56;34.84;99167.25;4933413;28;8869;-77
2023/03/24 06:33:54;;;;;;;;;65.00;50.75;;;;;14.66;34.67;99163.31;4948829;28;8983;-76
2023/03/24 06:36:24;;;;;;;;;63.00;51.67;;;;;14.75;34.73;99164.69;4947563;28;8927;-78
2023/03/24 06:38:55;;;;;;;;;58.75;48.50;;;;;14.93;34.36;99165.69;4953157;28;9047;-77
2023/03/24 06:41:27;;;;;;;;;55.50;45.75;;;;;15.08;34.11;99168.56;4953525;28;8894;-77
2023/03/24 06:44:00;;;;;;;;;54.00;45.25;;;;;15.24;33.78;99165.16;4951841;28;8863;-77
2023/03/24 06:46:30;;;;;;;;;54.25;44.25;;;;;15.42;33.33;99173.16;4968981;28;8914;-76
2023/03/24 06:48:59;;;;;;;;;52.00;41.50;;;;;15.59;33.25;99177.66;4949523;28;8901;-79
2023/03/24 06:51:28;;;;;;;;;48.75;41.25;;;;;15.77;33.15;99171.47;4933843;28;8898;-77
2023/03/24 06:53:59;;;;;;;;;51.00;42.50;;;;;15.97;32.60;99173.19;4958035;28;8919;-76
2023/03/24 06:56:29;;;;;;;;;52.00;42.50;;;;;16.06;32.18;99177.19;4972844;28;8857;-79
2023/03/24 06:59:01;;;;;;;;;42.00;36.25;;;;;16.19;32.20;99175.63;4989739;28;8876;-77
2023/03/24 07:01:35;;;;;;;;;38.00;35.00;;;;;16.35;31.71;99178.34;5062487;28;8917;-77
2023/03/24 07:04:27;;;;;;;;;47.00;37.50;;;;;16.55;31.37;99169.41;5008025;28;8948;-77
2023/03/24 07:07:00;;;;;;;;;44.00;37.75;;;;;16.72;31.68;99175.63;4991767;28;8893;-76
2023/03/24 07:10:03;;;;;;;;;46.00;37.50;;;;;16.95;31.75;99174.44;4952984;28;8987;-78
2023/03/24 07:12:33;;;;;;;;;40.50;35.75;;;;;17.09;31.20;99174.53;4952607;28;8869;-76
2023/03/24 07:15:03;;;;;;;;;42.75;36.75;;;;;17.17;30.97;99175.00;4984815;28;9946;-77
2023/03/24 07:17:32;;;;;;;;;39.75;35.25;;;;;17.33;30.75;99175.03;4965107;28;8903;-77
2023/03/24 07:20:07;;;;;;;;;42.25;37.00;;;;;17.49;30.81;99174.19;4973120;28;8891;-78
2023/03/24 07:22:59;;;;;;;;;41.25;35.75;;;;;17.64;30.59;99178.63;4921922;28;8873;-80
2023/03/24 07:25:53;;;;;;;;;41.25;35.50;;;;;17.80;30.24;99173.31;4966081;28;8901;-81
2023/03/24 07:28:43;;;;;;;;;44.00;36.00;;;;;17.96;30.15;99179.47;4947965;28;8851;-80
2023/03/24 07:31:13;;;;;;;;;45.50;36.50;;;;;18.11;29.88;99174.25;4950094;28;8997;-80
2023/03/24 07:33:44;;;;;;;;;36.00;33.00;;;;;18.24;29.25;99179.72;4892007;29;8977;-82
2023/03/24 07:36:14;;;;;;;;;38.25;34.75;;;;;18.25;27.92;99186.72;4891626;29;9019;-79
2023/03/24 07:38:43;;;;;;;;;33.25;31.50;;;;;18.24;27.02;99174.38;4892449;29;8960;-79
2023/03/24 07:41:20;;;;;;;;;27.75;27.75;;;;;18.43;27.43;99171.50;4901419;29;8893;-81
2023/03/24 07:43:54;;;;;;;;;28.50;28.50;;;;;18.48;26.58;99180.91;4895060;29;8863;-79
2023/03/24 07:46:31;;;;;;;;;28.00;28.00;;;;;18.39;26.55;99175.28;4895047;29;9626;-78
2023/03/24 07:49:01;;;;;;;;;35.25;30.25;;;;;18.40;26.68;99177.84;4910030;29;8866;-77
2023/03/24 07:51:50;;;;;;;;;32.25;30.00;;;;;18.19;26.86;99177.31;4925730;29;8875;-78
2023/03/24 07:54:23;;;;;;;;;30.50;28.75;;;;;18.32;27.04;99186.28;4926275;29;8882;-79
2023/03/24 07:56:55;;;;;;;;;35.25;32.50;;;;;18.47;27.22;99178.34;4926692;29;9073;-78
2023/03/24 07:59:24;;;;;;;;;31.50;30.25;;;;;18.72;27.06;99172.38;4897211;29;8951;-80
2023/03/24 08:02:17;;;;;;;;;34.25;29.50;;;;;18.85;26.49;99162.72;4929797;29;10237;-80
2023/03/24 08:04:59;;;;;;;;;31.25;30.25;;;;;18.83;26.31;99169.97;4945745;28;8853;-79
2023/03/24 08:07:52;;;;;;;;;35.50;32.25;;;;;18.87;26.37;99171.47;5062960;28;9079;-78
2023/03/24 08:10:23;;;;;;;;;34.00;30.00;;;;;18.80;26.36;99158.63;5047350;28;8973;-78
2023/03/24 08:12:53;;;;;;;;;30.25;28.75;;;;;19.07;26.24;99159.59;5082168;28;8863;-78
2023/03/24 08:15:23;;;;;;;;;28.25;27.75;;;;;18.95;26.23;99155.06;5049704;28;8863;-78
2023/03/24 08:17:52;;;;;;;;;36.50;32.75;;;;;18.68;26.44;99155.75;5049757;28;8868;-78
2023/03/24 08:20:23;;;;;;;;;28.50;27.50;;;;;18.87;26.23;99157.31;5070323;28;8871;-79
2023/03/24 08:22:53;;;;;;;;;28.25;28.25;;;;;18.95;25.84;99157.72;5088894;28;8847;-79
2023/03/24 08:25:24;;;;;;;;;30.50;27.25;;;;;19.13;25.60;99150.38;5088304;28;8831;-78
2023/03/24 08:27:55;;;;;;;;;25.25;24.50;;;;;19.11;25.07;99153.13;5065936;28;8836;-79
2023/03/24 08:30:26;;;;;;;;;26.75;25.75;;;;;18.48;25.86;99148.13;5050237;28;8859;-79
2023/03/24 08:32:57;;;;;;;;;30.00;30.00;;;;;18.20;26.47;99159.56;5082816;28;8891;-79
2023/03/24 08:35:30;;;;;;;;;26.75;26.00;;;;;18.45;26.30;99157.13;5027271;28;8867;-78
2023/03/24 08:38:00;;;;;;;;;20.25;20.00;;;;;18.94;25.76;99153.31;5066546;28;8894;-79
2023/03/24 08:40:33;;;;;;;;;26.25;24.50;;;;;19.22;25.41;99149.78;5082982;28;8863;-80
2023/03/24 08:43:07;;;;;;;;;24.00;23.75;;;;;19.37;24.77;99149.78;5067916;28;8856;-79
2023/03/24 08:45:37;;;;;;;;;22.00;22.00;;;;;19.12;25.34;99149.53;5074962;28;8884;-79
2023/03/24 08:48:07;;;;;;;;;20.40;19.20;;;;;19.48;24.77;99142.81;5050094;28;8997;-79
2023/03/24 08:50:39;;;;;;;;;22.80;21.80;;;;;19.41;24.58;99137.97;5032483;28;8972;-79
2023/03/24 08:53:10;;;;;;;;;21.60;21.20;;;;;19.37;25.09;99152.44;5065641;28;8856;-78
2023/03/24 08:55:41;;;;;;;;;22.40;22.40;;;;;19.61;24.83;99148.22;5065832;28;9167;-79
2023/03/24 08:58:15;;;;;;;;;19.75;19.75;;;;;20.03;24.59;99146.34;5049149;28;8933;-80
2023/03/24 09:00:46;;;;;;;;;25.25;24.50;;;;;20.09;24.19;99143.25;5068740;28;8999;-77
2023/03/24 09:03:17;;;;;;;;;22.00;21.00;;;;;20.08;24.48;99146.91;5032358;28;8898;-79
2023/03/24 09:05:46;;;;;;;;;16.80;14.80;;;;;19.40;25.40;99144.22;5068500;28;8843;-79
2023/03/24 09:08:17;;;;;;;;;25.25;23.75;;;;;19.41;25.80;99133.47;5067176;28;8980;-78
2023/03/24 09:10:46;;;;;;;;;22.20;20.60;;;;;19.60;25.51;99138.50;5068446;28;8873;-78
2023/03/24 09:13:17;;;;;;;;;20.00;20.00;;;;;19.90;24.81;99137.47;5069250;28;8843;-79
2023/03/24 09:15:48;;;;;;;;;18.20;18.20;;;;;19.88;24.47;99136.72;5067371;28;8887;-80
2023/03/24 09:18:19;;;;;;;;;22.20;21.60;;;;;19.70;24.96;99138.75;5066313;28;8935;-78
2023/03/24 09:20:48;;;;;;;;;24.80;22.60;;;;;19.51;25.54;99133.75;5084206;28;9021;-78
2023/03/24 09:23:18;;;;;;;;;22.40;21.00;;;;;19.84;25.38;99132.50;5067939;28;8882;-80
2023/03/24 09:25:49;;;;;;;;;19.40;19.40;;;;;20.20;25.30;99125.66;5073821;28;9014;-77
2023/03/24 09:28:19;;;;;;;;;19.60;18.60;;;;;20.48;25.42;99122.88;5089568;28;8859;-79
2023/03/24 09:30:49;;;;;;;;;22.60;22.60;;;;;20.61;25.24;99128.19;5074101;28;8830;-80
2023/03/24 09:33:18;;;;;;;;;24.25;21.00;;;;;20.86;25.53;99124.69;5088372;28;8902;-79
2023/03/24 09:35:54;;;;;;;;;19.40;18.00;;;;;21.09;24.62;99124.91;5084128;28;8866;-78
2023/03/24 09:38:26;;;;;;;;;22.60;21.40;;;;;21.06;24.17;99123.28;5116579;28;8864;-79
2023/03/24 09:40:59;;;;;;;;;21.75;21.25;;;;;20.93;24.52;99125.13;5073395;28;8869;-80
2023/03/24 09:43:38;;;;;;;;;24.25;22.00;;;;;21.23;24.30;99116.72;5079589;28;8852;-77
2023/03/24 09:46:14;;;;;;;;;25.75;24.75;;;;;21.41;24.37;99108.34;5081382;28;8859;-79
2023/03/24 09:48:48;;;;;;;;;23.60;22.80;;;;;21.56;23.82;99109.91;5087495;28;8862;-79
2023/03/24 09:51:22;;;;;;;;;22.50;20.75;;;;;21.74;23.91;99106.84;5083279;28;8878;-78
2023/03/24 09:53:58;;;;;;;;;23.75;22.75;;;;;21.68;24.21;99102.81;5075959;28;8896;-79
2023/03/24 09:56:28;;;;;;;;;25.50;25.50;;;;;21.74;23.72;99104.16;5082126;28;8893;-78
2023/03/24 09:59:05;;;;;;;;;23.25;22.25;;;;;22.04;23.82;99096.50;5106744;28;8881;-77
2023/03/24 10:01:35;;;;;;;;;20.75;19.00;;;;;22.00;23.41;99088.84;5093857;28;8850;-77
2023/03/24 10:04:05;;;;;;;;;20.75;20.75;;;;;22.17;23.14;99091.06;5109440;28;8851;-79
2023/03/24 10:06:40;;;;;;;;;25.75;23.00;;;;;22.25;23.40;99087.81;5087816;28;8844;-78
2023/03/24 10:09:22;;;;;;;;;16.75;16.75;;;;;22.28;22.53;99089.41;5082354;28;8850;-77
2023/03/24 10:12:03;;;;;;;;;24.00;21.00;;;;;22.37;23.21;99086.03;5012399;28;8848;-79
2023/03/24 10:14:46;;;;;;;;;27.50;25.50;;;;;22.41;23.24;99082.13;5047998;28;8874;-78
2023/03/24 10:17:27;;;;;;;;;20.00;19.00;;;;;22.32;23.32;99081.03;5070516;28;8854;-79
2023/03/24 10:20:04;;;;;;;;;21.00;19.00;;;;;22.36;22.79;99081.66;5092771;28;8828;-79
2023/03/24 10:22:39;;;;;;;;;23.00;21.40;;;;;22.40;23.44;99081.28;5086790;28;8864;-78
2023/03/24 10:25:18;;;;;;;;;21.00;19.60;;;;;22.53;22.75;99073.16;5084276;28;8960;-77
2023/03/24 10:27:53;;;;;;;;;18.80;18.00;;;;;22.30;22.95;99076.78;5084485;28;8955;-78
2023/03/24 10:30:28;;;;;;;;;23.00;21.75;;;;;22.36;22.34;99068.25;5092001;28;8850;-80
2023/03/24 10:32:57;;;;;;;;;15.00;14.80;;;;;22.10;22.13;99070.25;5075106;28;8866;-79
2023/03/24 10:35:30;;;;;;;;;18.00;17.60;;;;;22.45;22.36;99058.63;5103999;28;8972;-77
2023/03/24 10:38:02;;;;;;;;;12.40;12.40;;;;;22.61;22.67;99061.81;5085832;28;9664;-77
2023/03/24 10:40:33;;;;;;;;;15.60;15.00;;;;;22.76;21.67;99059.75;5090367;28;8847;-78
2023/03/24 10:43:05;;;;;;;;;14.60;14.60;;;;;22.81;20.90;99061.09;5090736;28;8863;-77
2023/03/24 10:45:42;;;;;;;;;16.40;15.40;;;;;22.52;20.80;99059.88;5091503;28;8864;-78
2023/03/24 10:48:13;;;;;;;;;13.60;13.20;;;;;22.73;21.10;99055.50;5091616;28;8879;-80
2023/03/24 10:50:44;;;;;;;;;14.00;13.80;;;;;22.95;20.86;99054.66;5076363;28;9480;-79
2023/03/24 10:53:18;;;;;;;;;16.00;16.00;;;;;23.12;21.26;99047.94;5091430;28;8851;-79
2023/03/24 10:55:49;;;;;;;;;13.40;13.40;;;;;23.19;20.98;99042.94;5087076;28;8869;-78
2023/03/24 10:58:26;;;;;;;;;11.60;11.60;;;;;23.36;20.58;99041.53;5080463;28;8871;-79
2023/03/24 11:00:58;;;;;;;;;18.50;17.25;;;;;23.44;20.81;99036.38;5087649;28;9631;-80
2023/03/24 11:03:31;;;;;;;;;16.80;16.80;;;;;23.48;20.37;99032.47;5065799;28;8892;-78
2023/03/24 11:06:01;;;;;;;;;16.40;16.20;;;;;22.55;20.73;99030.19;5089393;28;8852;-78
2023/03/24 11:08:35;;;;;;;;;16.60;16.60;;;;;22.99;20.42;99031.13;5090968;28;9616;-79
2023/03/24 11:11:15;;;;;;;;;18.20;16.20;;;;;23.36;21.34;99020.09;5090674;28;9598;-79
2023/03/24 11:13:55;;;;;;;;;14.20;14.20;;;;;23.56;19.76;99022.00;5089554;28;8848;-79
2023/03/24 11:16:30;;;;;;;;;17.60;15.40;;;;;23.00;19.83;99016.78;5089568;28;8856;-78
2023/03/24 11:19:01;;;;;;;;;12.80;12.00;;;;;23.43;20.07;99009.69;5089170;28;9744;-80
2023/03/24 11:21:32;;;;;;;;;11.20;11.20;;;;;23.37;19.41;99005.69;5055005;28;8934;-79
2023/03/24 11:24:04;;;;;;;;;13.00;13.00;;;;;23.64;19.78;99007.94;5089477;28;8874;-78
2023/03/24 11:26:35;;;;;;;;;16.60;12.60;;;;;23.78;19.37;99004.06;5070014;28;9449;-78
2023/03/24 11:29:08;;;;;;;;;16.60;16.20;;;;;23.87;19.32;98991.72;5079585;28;8952;-78
2023/03/24 11:31:40;;;;;;;;;15.00;15.00;;;;;24.03;19.36;98986.72;5117868;27;8871;-74
2023/03/24 11:34:14;;;;;;;;;11.60;10.60;;;;;24.33;19.31;98985.06;5088431;28;8941;-73
2023/03/24 11:36:47;;;;;;;;;11.20;11.20;;;;;24.62;18.79;98995.06;5071377;28;8859;-76
2023/03/24 11:39:20;;;;;;;;;9.80;9.80;;;;;24.76;18.04;98983.16;5089662;28;8871;-75
2023/03/24 11:42:00;;;;;;;;;19.20;19.20;;;;;25.10;18.15;98971.03;5087077;28;8970;-79
2023/03/24 11:44:41;;;;;;;;;16.00;15.00;;;;;25.18;18.00;98972.19;5071679;28;8858;-74
2023/03/24 11:47:16;;;;;;;;;15.20;13.20;;;;;25.35;17.63;98958.06;5087422;28;8850;-74
2023/03/24 11:49:53;;;;;;;;;12.40;12.00;;;;;25.55;17.47;98955.34;5050397;28;8855;-74
2023/03/24 11:52:25;;;;;;;;;13.60;13.00;;;;;25.67;17.90;98948.84;5067223;28;8860;-74
2023/03/24 11:54:54;;;;;;;;;14.80;13.40;;;;;25.96;17.35;98954.19;5066543;28;8820;-76
2023/03/24 11:57:43;;;;;;;;;15.40;12.60;;;;;25.16;17.94;98953.50;5067253;28;8929;-75
2023/03/24 12:00:20;;;;;;;;;14.80;14.80;;;;;25.72;17.10;98943.88;5050316;28;9058;-76
2023/03/24 12:03:12;;;;;;;;;12.00;12.00;;;;;25.98;16.78;98938.72;5067438;28;8886;-76
2023/03/24 12:05:47;;;;;;;;;8.40;8.00;;;;;26.23;16.42;98928.28;5033890;28;8824;-77